sensor_id;sensor_type;location;lat;lon;timestamp;pressure;altitude;pressure_sealevel;temperature;humidity
55538;BME280;41383;51.418;7.286;2023-03-04T00:01:34;100734.72;;;5.23;67.56
55538;BME280;41383;51.418;7.286;2023-03-04T00:04:00;100735.56;;;5.23;67.42
55538;BME280;41383;51.418;7.286;2023-03-04T00:06:25;100742.22;;;5.28;67.28
55538;BME280;41383;51.418;7.286;2023-03-04T00:08:50;100732.25;;;5.28;67.21
55538;BME280;41383;51.418;7.286;2023-03-04T00:11:16;100727.47;;;5.30;66.70
55538;BME280;41383;51.418;7.286;2023-03-04T00:13:41;100741.84;;;5.31;66.66
55538;BME280;41383;51.418;7.286;2023-03-04T00:16:06;100732.25;;;5.28;66.72
55538;BME280;41383;51.418;7.286;2023-03-04T00:18:32;100718.50;;;5.30;66.78
55538;BME280;41383;51.418;7.286;2023-03-04T00:20:57;100733.09;;;5.29;67.36
55538;BME280;41383;51.418;7.286;2023-03-04T00:23:22;100721.22;;;5.30;67.06
55538;BME280;41383;51.418;7.286;2023-03-04T00:25:47;100723.28;;;5.28;66.61
55538;BME280;41383;51.418;7.286;2023-03-04T00:28:13;100721.84;;;5.32;66.78
55538;BME280;41383;51.418;7.286;2023-03-04T00:30:38;100719.16;;;5.32;66.97
55538;BME280;41383;51.418;7.286;2023-03-04T00:33:03;100727.03;;;5.33;67.15
55538;BME280;41383;51.418;7.286;2023-03-04T00:35:28;100718.09;;;5.40;66.17
55538;BME280;41383;51.418;7.286;2023-03-04T00:37:54;100724.34;;;5.40;66.43
55538;BME280;41383;51.418;7.286;2023-03-04T00:40:19;100716.44;;;5.32;66.88
55538;BME280;41383;51.418;7.286;2023-03-04T00:42:44;100722.03;;;5.23;66.88
55538;BME280;41383;51.418;7.286;2023-03-04T00:45:09;100712.09;;;5.31;66.70
55538;BME280;41383;51.418;7.286;2023-03-04T00:47:35;100714.38;;;5.34;66.14
55538;BME280;41383;51.418;7.286;2023-03-04T00:50:00;100715.00;;;5.36;66.68
55538;BME280;41383;51.418;7.286;2023-03-04T00:52:25;100716.66;;;5.44;66.48
55538;BME280;41383;51.418;7.286;2023-03-04T00:54:51;100709.38;;;5.44;66.00
55538;BME280;41383;51.418;7.286;2023-03-04T00:57:16;100718.13;;;5.46;65.98
55538;BME280;41383;51.418;7.286;2023-03-04T00:59:41;100711.25;;;5.44;66.20
55538;BME280;41383;51.418;7.286;2023-03-04T01:02:08;100709.59;;;5.43;66.30
55538;BME280;41383;51.418;7.286;2023-03-04T01:04:33;100711.03;;;5.45;66.68
55538;BME280;41383;51.418;7.286;2023-03-04T01:06:59;100706.06;;;5.49;66.18
55538;BME280;41383;51.418;7.286;2023-03-04T01:09:24;100706.25;;;5.47;66.21
55538;BME280;41383;51.418;7.286;2023-03-04T01:11:51;100704.59;;;5.46;66.23
55538;BME280;41383;51.418;7.286;2023-03-04T01:14:16;100704.81;;;5.45;65.86
55538;BME280;41383;51.418;7.286;2023-03-04T01:16:41;100701.28;;;5.44;66.19
55538;BME280;41383;51.418;7.286;2023-03-04T01:19:06;100703.16;;;5.51;66.27
55538;BME280;41383;51.418;7.286;2023-03-04T01:21:32;100701.06;;;5.53;65.98
55538;BME280;41383;51.418;7.286;2023-03-04T01:23:57;100697.53;;;5.52;66.58
55538;BME280;41383;51.418;7.286;2023-03-04T01:26:22;100699.59;;;5.50;66.00
55538;BME280;41383;51.418;7.286;2023-03-04T01:28:48;100689.41;;;5.45;66.54
55538;BME280;41383;51.418;7.286;2023-03-04T01:31:13;100691.91;;;5.47;66.14
55538;BME280;41383;51.418;7.286;2023-03-04T01:33:38;100687.75;;;5.44;66.59
55538;BME280;41383;51.418;7.286;2023-03-04T01:36:04;100680.66;;;5.43;66.75
55538;BME280;41383;51.418;7.286;2023-03-04T01:38:29;100685.66;;;5.46;66.08
55538;BME280;41383;51.418;7.286;2023-03-04T01:40:54;100685.66;;;5.46;66.31
55538;BME280;41383;51.418;7.286;2023-03-04T01:43:27;100683.16;;;5.52;66.08
55538;BME280;41383;51.418;7.286;2023-03-04T01:45:54;100685.66;;;5.46;66.36
55538;BME280;41383;51.418;7.286;2023-03-04T01:48:25;100681.09;;;5.47;66.50
55538;BME280;41383;51.418;7.286;2023-03-04T01:50:51;100674.84;;;5.46;67.20
55538;BME280;41383;51.418;7.286;2023-03-04T01:53:20;100677.56;;;5.46;66.55
55538;BME280;41383;51.418;7.286;2023-03-04T01:55:46;100676.50;;;5.47;66.96
55538;BME280;41383;51.418;7.286;2023-03-04T01:58:11;100676.31;;;5.49;66.67
55538;BME280;41383;51.418;7.286;2023-03-04T02:00:37;100677.13;;;5.49;66.82
55538;BME280;41383;51.418;7.286;2023-03-04T02:03:05;100676.09;;;5.51;66.12
55538;BME280;41383;51.418;7.286;2023-03-04T02:05:37;100677.75;;;5.52;66.67
55538;BME280;41383;51.418;7.286;2023-03-04T02:08:04;100668.59;;;5.53;66.79
55538;BME280;41383;51.418;7.286;2023-03-04T02:10:30;100669.66;;;5.38;66.83
55538;BME280;41383;51.418;7.286;2023-03-04T02:12:56;100671.09;;;5.47;66.47
55538;BME280;41383;51.418;7.286;2023-03-04T02:15:23;100669.44;;;5.33;66.97
55538;BME280;41383;51.418;7.286;2023-03-04T02:17:49;100669.84;;;5.43;66.94
55538;BME280;41383;51.418;7.286;2023-03-04T02:20:42;100673.38;;;5.51;66.55
55538;BME280;41383;51.418;7.286;2023-03-04T02:23:16;100664.03;;;5.46;66.71
55538;BME280;41383;51.418;7.286;2023-03-04T02:26:14;100660.50;;;5.53;66.71
55538;BME280;41383;51.418;7.286;2023-03-04T02:28:39;100658.19;;;5.49;66.63
55538;BME280;41383;51.418;7.286;2023-03-04T02:31:05;100656.13;;;5.45;66.78
55538;BME280;41383;51.418;7.286;2023-03-04T02:33:31;100664.03;;;5.46;66.96
55538;BME280;41383;51.418;7.286;2023-03-04T02:35:57;100659.25;;;5.48;66.73
55538;BME280;41383;51.418;7.286;2023-03-04T02:38:23;100655.91;;;5.46;66.57
55538;BME280;41383;51.418;7.286;2023-03-04T02:40:50;100649.25;;;5.49;66.86
55538;BME280;41383;51.418;7.286;2023-03-04T02:43:17;100652.38;;;5.46;67.18
55538;BME280;41383;51.418;7.286;2023-03-04T02:45:46;100649.44;;;5.47;66.93
55538;BME280;41383;51.418;7.286;2023-03-04T02:48:12;100654.88;;;5.54;66.98
55538;BME280;41383;51.418;7.286;2023-03-04T02:50:47;100650.28;;;5.48;66.78
55538;BME280;41383;51.418;7.286;2023-03-04T02:53:13;100648.22;;;5.50;66.95
55538;BME280;41383;51.418;7.286;2023-03-04T02:55:39;100642.78;;;5.09;67.98
55538;BME280;41383;51.418;7.286;2023-03-04T02:58:06;100643.84;;;5.29;67.24
55538;BME280;41383;51.418;7.286;2023-03-04T03:00:31;100638.22;;;5.37;67.54
55538;BME280;41383;51.418;7.286;2023-03-04T03:02:56;100635.28;;;5.45;66.99
55538;BME280;41383;51.418;7.286;2023-03-04T03:05:25;100640.53;;;5.47;67.19
55538;BME280;41383;51.418;7.286;2023-03-04T03:07:51;100631.34;;;5.41;66.64
55538;BME280;41383;51.418;7.286;2023-03-04T03:10:16;100633.03;;;5.22;67.00
55538;BME280;41383;51.418;7.286;2023-03-04T03:12:41;100631.38;;;5.34;66.68
55538;BME280;41383;51.418;7.286;2023-03-04T03:15:07;100636.56;;;5.43;66.82
55538;BME280;41383;51.418;7.286;2023-03-04T03:17:32;100630.72;;;5.53;66.48
55538;BME280;41383;51.418;7.286;2023-03-04T03:19:58;100627.59;;;5.56;66.32
55538;BME280;41383;51.418;7.286;2023-03-04T03:22:23;100636.94;;;5.60;66.25
55538;BME280;41383;51.418;7.286;2023-03-04T03:24:48;100626.56;;;5.57;66.93
55538;BME280;41383;51.418;7.286;2023-03-04T03:27:14;100628.22;;;5.58;66.38
55538;BME280;41383;51.418;7.286;2023-03-04T03:29:39;100627.59;;;5.56;66.77
55538;BME280;41383;51.418;7.286;2023-03-04T03:32:04;100617.81;;;5.55;66.45
55538;BME280;41383;51.418;7.286;2023-03-04T03:34:30;100617.00;;;5.61;65.90
55538;BME280;41383;51.418;7.286;2023-03-04T03:36:55;100627.38;;;5.64;65.82
55538;BME280;41383;51.418;7.286;2023-03-04T03:39:20;100611.16;;;5.57;66.00
55538;BME280;41383;51.418;7.286;2023-03-04T03:41:46;100616.16;;;5.54;66.45
55538;BME280;41383;51.418;7.286;2023-03-04T03:44:11;100618.44;;;5.57;66.50
55538;BME280;41383;51.418;7.286;2023-03-04T03:46:36;100622.81;;;5.58;66.54
55538;BME280;41383;51.418;7.286;2023-03-04T03:49:02;100618.25;;;5.58;66.52
55538;BME280;41383;51.418;7.286;2023-03-04T03:51:27;100618.03;;;5.60;65.99
55538;BME280;41383;51.418;7.286;2023-03-04T03:53:52;100615.94;;;5.55;66.44
55538;BME280;41383;51.418;7.286;2023-03-04T03:56:18;100615.75;;;5.57;66.63
55538;BME280;41383;51.418;7.286;2023-03-04T03:58:43;100618.63;;;5.55;66.62
55538;BME280;41383;51.418;7.286;2023-03-04T04:01:08;100613.03;;;5.57;66.18
55538;BME280;41383;51.418;7.286;2023-03-04T04:03:34;100615.31;;;5.60;66.33
55538;BME280;41383;51.418;7.286;2023-03-04T04:06:02;100618.63;;;5.62;66.38
55538;BME280;41383;51.418;7.286;2023-03-04T04:08:27;100608.25;;;5.59;66.37
55538;BME280;41383;51.418;7.286;2023-03-04T04:10:53;100614.91;;;5.63;65.83
55538;BME280;41383;51.418;7.286;2023-03-04T04:13:18;100617.19;;;5.66;65.94
55538;BME280;41383;51.418;7.286;2023-03-04T04:15:43;100609.69;;;5.61;66.26
55538;BME280;41383;51.418;7.286;2023-03-04T04:18:09;100607.22;;;5.46;66.17
55538;BME280;41383;51.418;7.286;2023-03-04T04:20:35;100606.78;;;5.49;65.79
55538;BME280;41383;51.418;7.286;2023-03-04T04:23:00;100608.47;;;5.51;65.93
55538;BME280;41383;51.418;7.286;2023-03-04T04:25:26;100605.34;;;5.54;65.75
55538;BME280;41383;51.418;7.286;2023-03-04T04:27:51;100601.19;;;5.44;65.77
55538;BME280;41383;51.418;7.286;2023-03-04T04:30:17;100608.47;;;5.51;66.07
55538;BME280;41383;51.418;7.286;2023-03-04T04:32:42;100604.72;;;5.65;65.80
55538;BME280;41383;51.418;7.286;2023-03-04T04:35:07;100611.59;;;5.61;65.59
55538;BME280;41383;51.418;7.286;2023-03-04T04:37:33;100609.91;;;5.60;65.92
55538;BME280;41383;51.418;7.286;2023-03-04T04:39:58;100607.19;;;5.60;66.00
55538;BME280;41383;51.418;7.286;2023-03-04T04:42:24;100610.75;;;5.60;65.96
55538;BME280;41383;51.418;7.286;2023-03-04T04:44:49;100614.91;;;5.56;65.98
55538;BME280;41383;51.418;7.286;2023-03-04T04:47:14;100614.91;;;5.56;65.51
55538;BME280;41383;51.418;7.286;2023-03-04T04:49:40;100611.38;;;5.63;65.25
55538;BME280;41383;51.418;7.286;2023-03-04T04:52:05;100612.81;;;5.58;65.88
55538;BME280;41383;51.418;7.286;2023-03-04T04:54:30;100620.53;;;5.55;65.79
55538;BME280;41383;51.418;7.286;2023-03-04T04:56:56;100619.06;;;5.52;66.55
55538;BME280;41383;51.418;7.286;2023-03-04T04:59:21;100623.84;;;5.43;66.07
55538;BME280;41383;51.418;7.286;2023-03-04T05:01:47;100620.75;;;5.40;66.85
55538;BME280;41383;51.418;7.286;2023-03-04T05:04:12;100617.41;;;5.44;66.71
55538;BME280;41383;51.418;7.286;2023-03-04T05:06:37;100626.16;;;5.46;66.57
55538;BME280;41383;51.418;7.286;2023-03-04T05:09:03;100621.34;;;5.55;66.48
55538;BME280;41383;51.418;7.286;2023-03-04T05:11:29;100621.97;;;5.57;66.71
55538;BME280;41383;51.418;7.286;2023-03-04T05:13:54;100619.91;;;5.46;66.79
55538;BME280;41383;51.418;7.286;2023-03-04T05:16:19;100618.66;;;5.48;66.99
55538;BME280;41383;51.418;7.286;2023-03-04T05:18:45;100616.81;;;5.49;66.89
55538;BME280;41383;51.418;7.286;2023-03-04T05:21:10;100615.56;;;5.38;66.75
55538;BME280;41383;51.418;7.286;2023-03-04T05:23:38;100614.50;;;5.46;67.23
55538;BME280;41383;51.418;7.286;2023-03-04T05:26:05;100613.44;;;5.54;67.06
55538;BME280;41383;51.418;7.286;2023-03-04T05:28:31;100612.38;;;5.61;66.62
55538;BME280;41383;51.418;7.286;2023-03-04T05:30:56;100607.44;;;5.45;67.53
55538;BME280;41383;51.418;7.286;2023-03-04T05:33:21;100607.00;;;5.55;67.34
55538;BME280;41383;51.418;7.286;2023-03-04T05:35:47;100611.56;;;5.47;67.14
55538;BME280;41383;51.418;7.286;2023-03-04T05:38:14;100606.59;;;5.44;67.01
55538;BME280;41383;51.418;7.286;2023-03-04T05:40:41;100602.00;;;5.52;67.19
55538;BME280;41383;51.418;7.286;2023-03-04T05:43:06;100610.34;;;5.57;67.05
55538;BME280;41383;51.418;7.286;2023-03-04T05:45:32;100608.03;;;5.54;66.67
55538;BME280;41383;51.418;7.286;2023-03-04T05:47:57;100607.41;;;5.58;66.87
55538;BME280;41383;51.418;7.286;2023-03-04T05:50:23;100610.94;;;5.66;66.83
55538;BME280;41383;51.418;7.286;2023-03-04T05:52:49;100613.22;;;5.62;66.79
55538;BME280;41383;51.418;7.286;2023-03-04T05:55:15;100606.97;;;5.61;67.14
55538;BME280;41383;51.418;7.286;2023-03-04T05:57:40;100608.44;;;5.57;66.53
55538;BME280;41383;51.418;7.286;2023-03-04T06:00:07;100621.16;;;5.57;66.53
55538;BME280;41383;51.418;7.286;2023-03-04T06:02:36;100620.72;;;5.60;66.71
55538;BME280;41383;51.418;7.286;2023-03-04T06:05:02;100615.94;;;5.62;66.82
55538;BME280;41383;51.418;7.286;2023-03-04T06:07:27;100621.78;;;5.59;66.86
55538;BME280;41383;51.418;7.286;2023-03-04T06:09:53;100620.31;;;5.56;66.91
55538;BME280;41383;51.418;7.286;2023-03-04T06:12:18;100621.16;;;5.57;67.11
55538;BME280;41383;51.418;7.286;2023-03-04T06:14:43;100629.09;;;5.45;67.34
55538;BME280;41383;51.418;7.286;2023-03-04T06:17:08;100628.44;;;5.56;67.16
55538;BME280;41383;51.418;7.286;2023-03-04T06:19:34;100634.47;;;5.52;66.79
55538;BME280;41383;51.418;7.286;2023-03-04T06:21:59;100631.13;;;5.56;66.97
55538;BME280;41383;51.418;7.286;2023-03-04T06:24:24;100638.00;;;5.59;66.93
55538;BME280;41383;51.418;7.286;2023-03-04T06:26:52;100639.03;;;5.58;67.55
55538;BME280;41383;51.418;7.286;2023-03-04T06:29:17;100643.59;;;5.64;66.97
55538;BME280;41383;51.418;7.286;2023-03-04T06:31:42;100640.06;;;5.70;66.95
55538;BME280;41383;51.418;7.286;2023-03-04T06:34:08;100644.25;;;5.53;67.49
55538;BME280;41383;51.418;7.286;2023-03-04T06:36:33;100636.56;;;5.63;67.17
55538;BME280;41383;51.418;7.286;2023-03-04T06:39:02;100647.16;;;5.58;67.63
55538;BME280;41383;51.418;7.286;2023-03-04T06:41:27;100643.63;;;5.51;68.28
55538;BME280;41383;51.418;7.286;2023-03-04T06:43:53;100642.81;;;5.57;67.47
55538;BME280;41383;51.418;7.286;2023-03-04T06:46:19;100640.91;;;5.64;67.62
55538;BME280;41383;51.418;7.286;2023-03-04T06:48:44;100645.50;;;5.57;67.67
55538;BME280;41383;51.418;7.286;2023-03-04T06:51:12;100649.47;;;5.61;67.56
55538;BME280;41383;51.418;7.286;2023-03-04T06:53:37;100653.59;;;5.70;67.09
55538;BME280;41383;51.418;7.286;2023-03-04T06:56:04;100652.16;;;5.61;68.04
55538;BME280;41383;51.418;7.286;2023-03-04T06:58:29;100646.50;;;5.76;67.54
55538;BME280;41383;51.418;7.286;2023-03-04T07:00:55;100656.72;;;5.81;67.11
55538;BME280;41383;51.418;7.286;2023-03-04T07:03:20;100654.84;;;5.81;67.28
55538;BME280;41383;51.418;7.286;2023-03-04T07:05:46;100649.22;;;5.76;67.40
55538;BME280;41383;51.418;7.286;2023-03-04T07:08:11;100649.88;;;5.65;67.35
55538;BME280;41383;51.418;7.286;2023-03-04T07:10:37;100658.16;;;5.77;67.31
55538;BME280;41383;51.418;7.286;2023-03-04T07:13:02;100656.72;;;5.74;67.48
55538;BME280;41383;51.418;7.286;2023-03-04T07:15:28;100660.22;;;5.88;67.01
55538;BME280;41383;51.418;7.286;2023-03-04T07:17:53;100659.81;;;5.84;67.48
55538;BME280;41383;51.418;7.286;2023-03-04T07:20:19;100658.16;;;5.77;67.34
55538;BME280;41383;51.418;7.286;2023-03-04T07:22:44;100665.84;;;5.80;67.56
55538;BME280;41383;51.418;7.286;2023-03-04T07:25:10;100660.66;;;5.85;67.31
55538;BME280;41383;51.418;7.286;2023-03-04T07:27:35;100658.78;;;5.72;67.31
55538;BME280;41383;51.418;7.286;2023-03-04T07:30:05;100669.81;;;5.84;67.77
55538;BME280;41383;51.418;7.286;2023-03-04T07:32:31;100667.31;;;5.82;67.74
55538;BME280;41383;51.418;7.286;2023-03-04T07:34:58;100672.75;;;5.62;68.27
55538;BME280;41383;51.418;7.286;2023-03-04T07:37:23;100664.84;;;5.67;68.78
55538;BME280;41383;51.418;7.286;2023-03-04T07:39:49;100671.50;;;5.71;68.54
55538;BME280;41383;51.418;7.286;2023-03-04T07:42:14;100675.88;;;5.66;68.64
55538;BME280;41383;51.418;7.286;2023-03-04T07:44:39;100671.91;;;5.68;68.50
55538;BME280;41383;51.418;7.286;2023-03-04T07:47:04;100678.34;;;5.81;68.53
55538;BME280;41383;51.418;7.286;2023-03-04T07:49:30;100676.88;;;5.99;68.12
55538;BME280;41383;51.418;7.286;2023-03-04T07:51:55;100675.22;;;5.98;68.28
55538;BME280;41383;51.418;7.286;2023-03-04T07:54:20;100678.13;;;5.76;68.12
55538;BME280;41383;51.418;7.286;2023-03-04T07:56:45;100665.66;;;5.75;68.96
55538;BME280;41383;51.418;7.286;2023-03-04T07:59:11;100676.47;;;5.88;69.00
55538;BME280;41383;51.418;7.286;2023-03-04T08:01:36;100675.44;;;5.89;69.05
55538;BME280;41383;51.418;7.286;2023-03-04T08:04:04;100678.34;;;5.81;69.72
55538;BME280;41383;51.418;7.286;2023-03-04T08:06:29;100674.78;;;5.94;69.72
55538;BME280;41383;51.418;7.286;2023-03-04T08:09:00;100678.53;;;5.93;70.27
55538;BME280;41383;51.418;7.286;2023-03-04T08:11:28;100672.31;;;6.06;70.07
55538;BME280;41383;51.418;7.286;2023-03-04T08:13:53;100673.56;;;6.10;70.18
55538;BME280;41383;51.418;7.286;2023-03-04T08:16:20;100676.00;;;6.18;69.19
55538;BME280;41383;51.418;7.286;2023-03-04T08:18:48;100669.56;;;6.19;69.91
55538;BME280;41383;51.418;7.286;2023-03-04T08:21:16;100673.06;;;6.27;69.46
55538;BME280;41383;51.418;7.286;2023-03-04T08:23:46;100677.25;;;6.23;69.51
55538;BME280;41383;51.418;7.286;2023-03-04T08:26:21;100674.75;;;6.28;68.83
55538;BME280;41383;51.418;7.286;2023-03-04T08:28:47;100675.59;;;6.22;69.21
55538;BME280;41383;51.418;7.286;2023-03-04T08:31:14;100681.56;;;6.37;69.02
55538;BME280;41383;51.418;7.286;2023-03-04T08:33:40;100668.09;;;6.24;69.44
55538;BME280;41383;51.418;7.286;2023-03-04T08:36:06;100672.03;;;6.21;69.09
55538;BME280;41383;51.418;7.286;2023-03-04T08:38:31;100666.19;;;6.31;69.29
55538;BME280;41383;51.418;7.286;2023-03-04T08:40:57;100663.44;;;6.45;68.93
55538;BME280;41383;51.418;7.286;2023-03-04T08:43:24;100663.97;;;6.60;68.22
55538;BME280;41383;51.418;7.286;2023-03-04T08:45:50;100670.88;;;6.56;68.35
55538;BME280;41383;51.418;7.286;2023-03-04T08:48:16;100666.22;;;6.70;68.07
55538;BME280;41383;51.418;7.286;2023-03-04T08:50:43;100667.69;;;6.73;68.22
55538;BME280;41383;51.418;7.286;2023-03-04T08:53:09;100658.69;;;6.79;67.88
55538;BME280;41383;51.418;7.286;2023-03-04T08:55:37;100667.91;;;6.64;67.62
55538;BME280;41383;51.418;7.286;2023-03-04T08:58:02;100665.88;;;6.53;68.77
55538;BME280;41383;51.418;7.286;2023-03-04T09:00:28;100668.31;;;6.68;68.71
55538;BME280;41383;51.418;7.286;2023-03-04T09:02:53;100662.91;;;6.61;68.89
55538;BME280;41383;51.418;7.286;2023-03-04T09:05:20;100665.56;;;6.75;68.38
55538;BME280;41383;51.418;7.286;2023-03-04T09:07:45;100660.06;;;6.88;68.12
55538;BME280;41383;51.418;7.286;2023-03-04T09:10:12;100666.56;;;6.87;67.85
55538;BME280;41383;51.418;7.286;2023-03-04T09:12:37;100657.72;;;6.99;67.46
55538;BME280;41383;51.418;7.286;2023-03-04T09:15:03;100667.75;;;6.92;67.62
55538;BME280;41383;51.418;7.286;2023-03-04T09:17:30;100665.22;;;6.97;67.52
55538;BME280;41383;51.418;7.286;2023-03-04T09:19:55;100662.78;;;6.88;67.80
55538;BME280;41383;51.418;7.286;2023-03-04T09:22:20;100657.53;;;6.94;67.72
55538;BME280;41383;51.418;7.286;2023-03-04T09:24:46;100669.59;;;6.98;67.84
55538;BME280;41383;51.418;7.286;2023-03-04T09:27:11;100657.88;;;7.04;68.07
55538;BME280;41383;51.418;7.286;2023-03-04T09:29:36;100664.88;;;6.86;68.35
55538;BME280;41383;51.418;7.286;2023-03-04T09:32:01;100664.53;;;6.76;69.43
55538;BME280;41383;51.418;7.286;2023-03-04T09:34:27;100663.84;;;6.87;69.93
55538;BME280;41383;51.418;7.286;2023-03-04T09:36:52;100676.66;;;6.67;70.78
55538;BME280;41383;51.418;7.286;2023-03-04T09:39:17;100675.38;;;6.69;71.35
55538;BME280;41383;51.418;7.286;2023-03-04T09:41:45;100668.53;;;6.67;72.22
55538;BME280;41383;51.418;7.286;2023-03-04T09:44:20;100672.25;;;6.72;72.94
55538;BME280;41383;51.418;7.286;2023-03-04T09:46:48;100678.38;;;6.54;74.03
55538;BME280;41383;51.418;7.286;2023-03-04T09:49:15;100666.84;;;6.65;74.81
55538;BME280;41383;51.418;7.286;2023-03-04T09:54:36;100657.34;;;6.56;75.60
55538;BME280;41383;51.418;7.286;2023-03-04T10:02:58;100656.59;;;6.81;74.64
55538;BME280;41383;51.418;7.286;2023-03-04T10:05:30;100668.28;;;6.75;75.14
55538;BME280;41383;51.418;7.286;2023-03-04T10:07:58;100660.81;;;6.63;75.42
55538;BME280;41383;51.418;7.286;2023-03-04T10:10:30;100650.31;;;6.81;74.78
55538;BME280;41383;51.418;7.286;2023-03-04T10:12:58;100661.38;;;6.79;75.06
55538;BME280;41383;51.418;7.286;2023-03-04T10:15:37;100659.09;;;6.76;75.65
55538;BME280;41383;51.418;7.286;2023-03-04T10:18:36;100658.56;;;6.60;77.11
55538;BME280;41383;51.418;7.286;2023-03-04T10:21:15;100652.53;;;6.58;77.67
55538;BME280;41383;51.418;7.286;2023-03-04T10:23:44;100659.97;;;6.24;78.09
55538;BME280;41383;51.418;7.286;2023-03-04T10:26:15;100658.94;;;6.04;80.32
55538;BME280;41383;51.418;7.286;2023-03-04T10:28:41;100655.41;;;6.11;80.71
55538;BME280;41383;51.418;7.286;2023-03-04T10:33:39;100648.81;;;6.52;79.45
55538;BME280;41383;51.418;7.286;2023-03-04T10:38:57;100645.91;;;6.47;80.01
55538;BME280;41383;51.418;7.286;2023-03-04T10:41:25;100647.13;;;6.51;79.27
55538;BME280;41383;51.418;7.286;2023-03-04T10:46:42;100653.19;;;5.60;82.43
55538;BME280;41383;51.418;7.286;2023-03-04T10:49:14;100657.28;;;5.96;82.21
55538;BME280;41383;51.418;7.286;2023-03-04T10:51:48;100655.16;;;6.26;82.18
55538;BME280;41383;51.418;7.286;2023-03-04T10:54:35;100644.66;;;6.50;81.73
55538;BME280;41383;51.418;7.286;2023-03-04T10:57:13;100642.91;;;6.62;80.93
55538;BME280;41383;51.418;7.286;2023-03-04T10:59:46;100642.72;;;6.57;80.68
55538;BME280;41383;51.418;7.286;2023-03-04T11:02:19;100639.19;;;6.57;80.75
55538;BME280;41383;51.418;7.286;2023-03-04T11:04:50;100629.94;;;6.71;79.72
55538;BME280;41383;51.418;7.286;2023-03-04T11:07:18;100636.56;;;6.75;80.29
55538;BME280;41383;51.418;7.286;2023-03-04T11:09:43;100641.91;;;6.57;80.34
55538;BME280;41383;51.418;7.286;2023-03-04T11:12:12;100640.22;;;6.62;80.15
55538;BME280;41383;51.418;7.286;2023-03-04T11:14:50;100639.59;;;6.60;80.07
55538;BME280;41383;51.418;7.286;2023-03-04T11:17:24;100633.53;;;6.65;79.88
55538;BME280;41383;51.418;7.286;2023-03-04T11:20:16;100627.53;;;6.56;80.17
55538;BME280;41383;51.418;7.286;2023-03-04T11:22:38;100634.78;;;6.62;80.55
55538;BME280;41383;51.418;7.286;2023-03-04T11:25:19;100627.81;;;6.73;80.10
55538;BME280;41383;51.418;7.286;2023-03-04T11:27:51;100631.22;;;6.69;79.85
55538;BME280;41383;51.418;7.286;2023-03-04T11:30:41;100616.13;;;6.80;79.64
55538;BME280;41383;51.418;7.286;2023-03-04T11:35:53;100619.97;;;6.97;79.62
55538;BME280;41383;51.418;7.286;2023-03-04T11:38:28;100602.59;;;7.05;78.66
55538;BME280;41383;51.418;7.286;2023-03-04T11:41:02;100608.81;;;6.80;79.98
55538;BME280;41383;51.418;7.286;2023-03-04T11:43:37;100606.47;;;6.91;80.07
55538;BME280;41383;51.418;7.286;2023-03-04T11:56:34;100587.38;;;6.79;80.50
55538;BME280;41383;51.418;7.286;2023-03-04T11:59:25;100584.88;;;6.77;81.57
55538;BME280;41383;51.418;7.286;2023-03-04T12:10:29;100579.78;;;7.39;79.36
55538;BME280;41383;51.418;7.286;2023-03-04T12:13:27;100571.66;;;7.57;79.05
55538;BME280;41383;51.418;7.286;2023-03-04T12:16:18;100560.81;;;7.57;78.22
55538;BME280;41383;51.418;7.286;2023-03-04T12:27:52;100558.53;;;7.35;78.11
55538;BME280;41383;51.418;7.286;2023-03-04T12:32:57;100544.97;;;7.35;78.14
55538;BME280;41383;51.418;7.286;2023-03-04T12:35:41;100547.75;;;7.29;78.33
55538;BME280;41383;51.418;7.286;2023-03-04T12:40:49;100543.78;;;7.50;78.06
55538;BME280;41383;51.418;7.286;2023-03-04T12:46:24;100534.88;;;7.24;78.91
55538;BME280;41383;51.418;7.286;2023-03-04T12:48:58;100531.47;;;7.29;78.40
55538;BME280;41383;51.418;7.286;2023-03-04T12:51:48;100533.22;;;7.42;78.16
55538;BME280;41383;51.418;7.286;2023-03-04T12:54:31;100524.84;;;7.43;77.87
55538;BME280;41383;51.418;7.286;2023-03-04T12:57:17;100516.16;;;7.16;79.22
55538;BME280;41383;51.418;7.286;2023-03-04T13:00:07;100529.59;;;7.29;79.83
55538;BME280;41383;51.418;7.286;2023-03-04T13:11:00;100517.66;;;7.30;78.04
55538;BME280;41383;51.418;7.286;2023-03-04T13:18:46;100511.94;;;7.39;77.60
55538;BME280;41383;51.418;7.286;2023-03-04T13:21:23;100511.03;;;7.26;77.82
55538;BME280;41383;51.418;7.286;2023-03-04T13:23:50;100506.81;;;7.30;77.26
55538;BME280;41383;51.418;7.286;2023-03-04T13:26:28;100508.41;;;6.94;79.25
55538;BME280;41383;51.418;7.286;2023-03-04T13:29:32;100507.41;;;7.14;79.96
55538;BME280;41383;51.418;7.286;2023-03-04T13:32:10;100496.97;;;6.92;81.05
55538;BME280;41383;51.418;7.286;2023-03-04T13:34:48;100496.28;;;7.22;80.88
55538;BME280;41383;51.418;7.286;2023-03-04T13:37:34;100503.97;;;7.25;80.43
55538;BME280;41383;51.418;7.286;2023-03-04T13:40:29;100494.19;;;7.24;80.69
55538;BME280;41383;51.418;7.286;2023-03-04T13:49:00;100488.28;;;7.27;80.48
55538;BME280;41383;51.418;7.286;2023-03-04T13:51:38;100497.47;;;7.26;80.38
55538;BME280;41383;51.418;7.286;2023-03-04T13:56:40;100482.56;;;7.35;80.04
55538;BME280;41383;51.418;7.286;2023-03-04T14:02:18;100477.16;;;7.35;79.63
55538;BME280;41383;51.418;7.286;2023-03-04T14:04:23;100474.66;;;7.34;80.00
55538;BME280;41383;51.418;7.286;2023-03-04T14:06:52;100467.34;;;7.34;80.21
55538;BME280;41383;51.418;7.286;2023-03-04T14:09:20;100468.72;;;7.44;80.63
55538;BME280;41383;51.418;7.286;2023-03-04T14:11:47;100455.22;;;7.56;80.01
55538;BME280;41383;51.418;7.286;2023-03-04T14:14:17;100460.28;;;7.52;80.00
55538;BME280;41383;51.418;7.286;2023-03-04T14:16:47;100466.31;;;7.54;80.23
55538;BME280;41383;51.418;7.286;2023-03-04T14:19:17;100458.34;;;7.71;80.03
55538;BME280;41383;51.418;7.286;2023-03-04T14:21:46;100451.66;;;7.74;79.80
55538;BME280;41383;51.418;7.286;2023-03-04T14:24:13;100456.59;;;7.77;78.94
55538;BME280;41383;51.418;7.286;2023-03-04T14:26:40;100451.72;;;7.67;78.87